Time;durP1;ratioP1;P1;durP2;ratioP2;P2;SDS_P1;SDS_P2;PMS_P1;PMS_P2;Temp;Humidity;BMP_temperature;BMP_pressure;BME280_temperature;BME280_humidity;BME280_pressure;Samples;Min_cycle;Max_cycle;Signal;HPM_P1;HPM_P2
2021/05/31 00:01:44;;;;;;;1.17;1.08;;;15.70;99.90;;;;;;5009925;28;20235;-79
2021/05/31 00:04:11;;;;;;;1.10;1.10;;;15.70;99.90;;;;;;5011888;28;20212;-77
2021/05/31 00:06:43;;;;;;;1.30;1.30;;;15.70;99.90;;;;;;5015621;28;20427;-78
2021/05/31 00:09:10;;;;;;;1.10;1.10;;;15.70;99.90;;;;;;5010578;28;20200;-77
2021/05/31 00:11:37;;;;;;;1.17;1.17;;;15.70;99.90;;;;;;5010834;28;20224;-80
2021/05/31 00:14:05;;;;;;;1.85;1.20;;;15.70;99.90;;;;;;5016907;28;20200;-77
2021/05/31 00:16:31;;;;;;;1.23;1.23;;;15.60;99.90;;;;;;5017132;28;20224;-82
2021/05/31 00:18:58;;;;;;;1.05;1.05;;;15.60;99.90;;;;;;5004814;28;20647;-78
2021/05/31 00:21:25;;;;;;;1.30;1.20;;;15.60;99.90;;;;;;5003848;28;20215;-76
2021/05/31 00:23:52;;;;;;;1.33;1.23;;;15.60;99.90;;;;;;5009120;28;20247;-76
2021/05/31 00:26:19;;;;;;;1.00;1.00;;;15.50;99.90;;;;;;5012837;28;20224;-77
2021/05/31 00:28:46;;;;;;;1.20;1.20;;;15.60;99.90;;;;;;5009630;28;20200;-77
2021/05/31 00:31:14;;;;;;;1.00;1.00;;;15.60;99.90;;;;;;5008170;28;20215;-76
2021/05/31 00:33:41;;;;;;;1.48;1.38;;;15.50;99.90;;;;;;5010209;28;20196;-78
2021/05/31 00:36:08;;;;;;;1.65;1.20;;;15.50;99.90;;;;;;5009220;28;20220;-76
2021/05/31 00:38:35;;;;;;;1.00;1.00;;;15.50;99.90;;;;;;5017104;28;20195;-78
2021/05/31 00:41:03;;;;;;;1.15;1.15;;;15.50;99.90;;;;;;5002461;28;20212;-77
2021/05/31 00:43:34;;;;;;;1.67;1.20;;;15.50;99.90;;;;;;5003625;28;20200;-76
2021/05/31 00:46:01;;;;;;;2.35;1.17;;;15.40;99.90;;;;;;5008878;28;20241;-76
2021/05/31 00:48:27;;;;;;;1.45;1.38;;;15.40;99.90;;;;;;5006936;28;20269;-77
2021/05/31 00:50:55;;;;;;;1.50;1.40;;;15.40;99.90;;;;;;5007193;28;20228;-77
2021/05/31 00:53:22;;;;;;;1.30;1.30;;;15.40;99.90;;;;;;5002016;28;20204;-78
2021/05/31 00:55:49;;;;;;;1.10;1.10;;;15.40;99.90;;;;;;5004344;28;20639;-76
2021/05/31 00:58:17;;;;;;;1.40;1.30;;;15.40;99.90;;;;;;5013343;28;20204;-77
2021/05/31 01:00:45;;;;;;;1.38;1.27;;;15.40;99.90;;;;;;5011774;28;20219;-80
2021/05/31 01:03:12;;;;;;;1.10;1.10;;;15.40;99.90;;;;;;5013447;28;20235;-78
2021/05/31 01:05:39;;;;;;;1.30;1.20;;;15.20;99.90;;;;;;5009452;28;20219;-77
2021/05/31 01:08:11;;;;;;;1.30;1.20;;;15.20;99.90;;;;;;5008799;28;20287;-78
2021/05/31 01:10:45;;;;;;;1.40;1.30;;;15.20;99.90;;;;;;5009282;28;20226;-76
2021/05/31 01:13:17;;;;;;;1.27;1.20;;;15.20;99.90;;;;;;5011150;28;20212;-80
2021/05/31 01:15:48;;;;;;;1.30;1.20;;;15.20;99.90;;;;;;5016581;28;20223;-77
2021/05/31 01:18:19;;;;;;;1.30;1.30;;;15.20;99.90;;;;;;5009278;28;20262;-77
2021/05/31 01:21:20;;;;;;;1.40;1.35;;;15.20;99.90;;;;;;5015361;28;20223;-76
2021/05/31 01:23:54;;;;;;;1.27;1.20;;;15.10;99.90;;;;;;5012636;28;21032;-76
2021/05/31 01:26:22;;;;;;;1.42;1.35;;;15.10;99.90;;;;;;5014514;28;20223;-77
2021/05/31 01:28:56;;;;;;;1.27;1.17;;;15.00;99.90;;;;;;5012672;28;20294;-79
2021/05/31 01:31:28;;;;;;;1.13;1.10;;;14.90;99.90;;;;;;5015808;28;20216;-76
2021/05/31 01:33:56;;;;;;;1.50;1.40;;;14.80;99.90;;;;;;5016214;28;20192;-77
2021/05/31 01:36:25;;;;;;;1.17;1.17;;;14.90;99.90;;;;;;5007972;28;21189;-77
2021/05/31 01:38:55;;;;;;;1.50;1.40;;;14.90;99.90;;;;;;5012370;28;20670;-78
2021/05/31 01:41:22;;;;;;;1.52;1.42;;;14.80;99.90;;;;;;5011071;28;20256;-77
2021/05/31 01:43:50;;;;;;;1.50;1.40;;;14.90;99.90;;;;;;5003896;28;20204;-78
2021/05/31 01:46:20;;;;;;;1.35;1.33;;;14.90;99.90;;;;;;5003661;28;20318;-80
2021/05/31 01:48:47;;;;;;;1.50;1.40;;;14.90;99.90;;;;;;5005285;28;20201;-79
2021/05/31 01:51:15;;;;;;;3.08;1.67;;;14.90;99.90;;;;;;5014244;28;20223;-76
2021/05/31 01:53:45;;;;;;;1.58;1.48;;;14.90;99.90;;;;;;5007985;28;20204;-79
2021/05/31 01:56:13;;;;;;;1.38;1.27;;;14.90;99.90;;;;;;5013566;28;20216;-77
2021/05/31 01:58:40;;;;;;;1.65;1.50;;;14.70;99.90;;;;;;5010377;28;20200;-78
2021/05/31 02:01:09;;;;;;;1.52;1.42;;;14.60;99.90;;;;;;5010621;28;20251;-76
2021/05/31 02:03:37;;;;;;;2.90;1.70;;;14.50;99.90;;;;;;5010800;28;20209;-79
2021/05/31 02:06:04;;;;;;;1.52;1.42;;;14.50;99.90;;;;;;5011267;28;20219;-77
2021/05/31 02:08:31;;;;;;;1.60;1.50;;;14.50;99.90;;;;;;5010899;28;20232;-76
2021/05/31 02:10:58;;;;;;;1.52;1.42;;;14.50;99.90;;;;;;5008812;28;20568;-76
2021/05/31 02:13:31;;;;;;;1.40;1.30;;;14.50;99.90;;;;;;5009182;28;20760;-78
2021/05/31 02:16:04;;;;;;;1.50;1.40;;;14.50;99.90;;;;;;5009803;28;20228;-79
2021/05/31 02:18:35;;;;;;;1.48;1.40;;;14.50;99.90;;;;;;5010027;28;20202;-76
2021/05/31 02:21:08;;;;;;;1.20;1.20;;;14.40;99.90;;;;;;5013143;28;20220;-79
2021/05/31 02:23:37;;;;;;;1.60;1.35;;;14.40;99.90;;;;;;5008978;28;20204;-77
2021/05/31 02:26:04;;;;;;;1.67;1.58;;;14.40;99.90;;;;;;5007925;28;20933;-80
2021/05/31 02:28:31;;;;;;;1.10;1.10;;;14.30;99.90;;;;;;5010830;28;20192;-79
2021/05/31 02:30:59;;;;;;;1.50;1.40;;;14.30;99.90;;;;;;5011050;28;20251;-79
2021/05/31 02:33:26;;;;;;;1.48;1.38;;;14.30;99.90;;;;;;5012645;28;20204;-77
2021/05/31 02:35:53;;;;;;;1.20;1.20;;;14.20;99.90;;;;;;5007719;28;20225;-76
2021/05/31 02:38:21;;;;;;;1.75;1.65;;;14.20;99.90;;;;;;5015050;28;20670;-77
2021/05/31 02:40:47;;;;;;;1.58;1.48;;;14.20;99.90;;;;;;5013014;28;20679;-76
2021/05/31 02:43:14;;;;;;;3.05;1.38;;;14.20;99.90;;;;;;5013477;28;20193;-78
2021/05/31 02:45:41;;;;;;;1.52;1.42;;;14.10;99.90;;;;;;5014776;28;20204;-76
2021/05/31 02:48:09;;;;;;;1.67;1.20;;;14.10;99.90;;;;;;5015770;28;20192;-81
2021/05/31 02:50:36;;;;;;;1.10;1.10;;;14.10;99.90;;;;;;5014061;28;20203;-79
2021/05/31 02:53:03;;;;;;;1.55;1.45;;;14.10;99.90;;;;;;5014673;28;20208;-76
2021/05/31 02:55:32;;;;;;;1.48;1.35;;;14.10;99.90;;;;;;5009783;28;20207;-76
2021/05/31 02:58:00;;;;;;;1.70;1.60;;;14.10;99.90;;;;;;5012237;28;20863;-79
2021/05/31 03:00:28;;;;;;;1.67;1.58;;;14.00;99.90;;;;;;5005584;28;20270;-76
2021/05/31 03:02:55;;;;;;;1.60;1.50;;;14.00;99.90;;;;;;5004939;28;20223;-77
2021/05/31 03:05:25;;;;;;;1.52;1.42;;;14.00;99.90;;;;;;5013072;28;20203;-77
2021/05/31 03:07:52;;;;;;;1.63;1.52;;;14.00;99.90;;;;;;5011650;28;20219;-76
2021/05/31 03:10:19;;;;;;;1.30;1.20;;;14.00;99.90;;;;;;5009897;28;20714;-76
2021/05/31 03:12:47;;;;;;;1.65;1.52;;;13.90;99.90;;;;;;5004982;28;20228;-81
2021/05/31 03:15:16;;;;;;;1.17;1.17;;;14.00;99.90;;;;;;5003993;28;21236;-77
2021/05/31 03:17:43;;;;;;;1.40;1.40;;;14.00;99.90;;;;;;5011294;28;20224;-82
2021/05/31 03:20:13;;;;;;;1.40;1.30;;;14.00;99.90;;;;;;5016112;28;20192;-79
2021/05/31 03:22:40;;;;;;;1.58;1.48;;;14.00;99.90;;;;;;5009351;28;20224;-79
2021/05/31 03:25:08;;;;;;;1.30;1.30;;;13.90;99.90;;;;;;5014034;28;20207;-79
2021/05/31 03:27:34;;;;;;;1.90;1.80;;;13.90;99.90;;;;;;5008375;28;20220;-80
2021/05/31 03:30:04;;;;;;;1.67;1.58;;;13.80;99.90;;;;;;5009027;28;20224;-77
2021/05/31 03:32:30;;;;;;;2.65;1.63;;;13.70;99.90;;;;;;5015150;28;20221;-76
2021/05/31 03:34:57;;;;;;;1.60;1.50;;;13.70;99.90;;;;;;5009250;28;20188;-77
2021/05/31 03:37:24;;;;;;;1.90;1.30;;;13.70;99.90;;;;;;5006949;28;20294;-80
2021/05/31 03:39:51;;;;;;;1.95;1.50;;;13.60;99.90;;;;;;5016608;28;20718;-76
2021/05/31 03:42:17;;;;;;;1.40;1.30;;;13.60;99.90;;;;;;5013469;28;20224;-76
2021/05/31 03:44:44;;;;;;;1.40;1.40;;;13.60;99.90;;;;;;5017391;28;20204;-76
2021/05/31 03:47:12;;;;;;;1.50;1.40;;;13.60;99.90;;;;;;5011515;28;20220;-75
2021/05/31 03:49:39;;;;;;;2.17;1.40;;;13.60;99.90;;;;;;5015720;28;20204;-76
2021/05/31 03:52:06;;;;;;;1.77;1.45;;;13.60;99.90;;;;;;5017502;28;20274;-77
2021/05/31 03:54:33;;;;;;;1.90;1.80;;;13.60;99.90;;;;;;5009762;28;20570;-76
2021/05/31 03:56:59;;;;;;;1.80;1.70;;;13.60;99.90;;;;;;5017355;28;20302;-78
2021/05/31 03:59:26;;;;;;;1.65;1.55;;;13.60;99.90;;;;;;5014662;28;20200;-76
2021/05/31 04:01:53;;;;;;;1.77;1.67;;;13.50;99.90;;;;;;5012501;28;20222;-80
2021/05/31 04:04:22;;;;;;;2.50;1.65;;;13.50;99.90;;;;;;5008063;28;20207;-79
2021/05/31 04:12:23;;;;;;;1.58;1.48;;;13.40;99.90;;;;;;5013383;28;20224;-77
2021/05/31 04:14:49;;;;;;;1.92;1.58;;;13.40;99.90;;;;;;5013863;28;20204;-78
2021/05/31 04:17:16;;;;;;;1.60;1.50;;;13.40;99.90;;;;;;5010882;28;20231;-77
2021/05/31 04:19:44;;;;;;;2.13;2.00;;;13.50;99.90;;;;;;5010593;28;20662;-76
2021/05/31 04:22:11;;;;;;;1.95;1.85;;;13.50;99.90;;;;;;5016192;28;20212;-76
2021/05/31 04:24:37;;;;;;;1.80;1.70;;;13.60;99.90;;;;;;5008352;28;20211;-75
2021/05/31 04:27:05;;;;;;;1.70;1.60;;;13.60;99.90;;;;;;5010984;28;20242;-76
2021/05/31 04:29:31;;;;;;;1.60;1.50;;;13.70;99.90;;;;;;5016268;28;20207;-76
2021/05/31 04:31:58;;;;;;;1.70;1.60;;;13.80;99.90;;;;;;5008993;28;20220;-77
2021/05/31 04:34:25;;;;;;;1.70;1.60;;;13.80;99.90;;;;;;5007928;28;20200;-79
2021/05/31 04:36:53;;;;;;;1.73;1.60;;;13.80;99.90;;;;;;5012759;28;20262;-73
2021/05/31 04:39:19;;;;;;;1.80;1.70;;;13.80;99.90;;;;;;5016958;28;20211;-75
2021/05/31 04:41:46;;;;;;;1.85;1.75;;;13.90;99.90;;;;;;5005118;28;20224;-77
2021/05/31 04:44:13;;;;;;;1.73;1.63;;;13.90;99.90;;;;;;5014435;28;20200;-81
2021/05/31 04:46:40;;;;;;;2.17;1.60;;;14.00;99.90;;;;;;5009093;28;20263;-78
2021/05/31 04:49:06;;;;;;;2.63;1.63;;;14.00;99.90;;;;;;5009568;28;20204;-76
2021/05/31 04:51:33;;;;;;;1.40;1.30;;;14.10;99.90;;;;;;5004059;28;20239;-76
2021/05/31 04:54:01;;;;;;;1.75;1.65;;;14.10;99.90;;;;;;5002914;28;20193;-77
2021/05/31 04:56:28;;;;;;;1.80;1.63;;;14.20;99.90;;;;;;5006861;28;20220;-78
2021/05/31 04:58:54;;;;;;;2.45;1.48;;;14.20;99.90;;;;;;5002081;28;20212;-77
2021/05/31 05:01:21;;;;;;;2.50;2.00;;;14.30;99.90;;;;;;5007016;28;20654;-78
2021/05/31 05:03:48;;;;;;;1.42;1.33;;;14.60;99.90;;;;;;5004129;28;20196;-78
2021/05/31 05:06:14;;;;;;;1.98;1.60;;;14.70;99.90;;;;;;5004117;28;20204;-75
2021/05/31 05:08:41;;;;;;;1.98;1.88;;;14.80;99.90;;;;;;5006368;28;20215;-75
2021/05/31 05:11:09;;;;;;;2.10;1.95;;;14.90;99.90;;;;;;5005601;28;20226;-79
2021/05/31 05:13:35;;;;;;;2.45;2.25;;;15.00;99.90;;;;;;5003494;28;20200;-77
2021/05/31 05:16:02;;;;;;;2.40;2.15;;;15.00;99.90;;;;;;5007402;28;20208;-77
2021/05/31 05:18:29;;;;;;;2.05;1.83;;;14.90;99.90;;;;;;5002674;28;20869;-77
2021/05/31 05:20:56;;;;;;;1.80;1.70;;;15.00;99.90;;;;;;5003145;28;20225;-77
2021/05/31 05:23:22;;;;;;;3.10;1.88;;;15.00;99.90;;;;;;5005850;28;20224;-77
2021/05/31 05:25:49;;;;;;;1.90;1.80;;;15.00;99.90;;;;;;4996814;28;20857;-76
2021/05/31 05:28:17;;;;;;;2.28;2.08;;;15.00;99.90;;;;;;5001290;28;20239;-77
2021/05/31 05:30:43;;;;;;;2.00;1.90;;;15.10;99.90;;;;;;5000393;28;20203;-75
2021/05/31 05:33:10;;;;;;;2.13;1.80;;;15.20;99.90;;;;;;4997725;28;20232;-77
2021/05/31 05:35:38;;;;;;;2.22;2.03;;;15.10;99.90;;;;;;4997824;28;21619;-75
2021/05/31 05:38:16;;;;;;;1.70;1.60;;;15.00;99.90;;;;;;4995516;28;20223;-75
2021/05/31 05:43:44;;;;;;;1.70;1.60;;;14.90;99.90;;;;;;4998017;28;21313;-78
2021/05/31 05:46:26;;;;;;;2.03;1.92;;;14.80;99.90;;;;;;4997629;28;20219;-77
2021/05/31 05:48:53;;;;;;;1.75;1.65;;;14.90;99.90;;;;;;5001135;28;20834;-77
2021/05/31 05:51:21;;;;;;;1.95;1.85;;;15.00;99.90;;;;;;4995040;28;20231;-76
2021/05/31 05:53:48;;;;;;;2.17;1.98;;;15.00;99.90;;;;;;4997909;28;20219;-76
2021/05/31 05:56:17;;;;;;;2.33;2.03;;;15.00;99.90;;;;;;4995360;28;20671;-76
2021/05/31 05:58:46;;;;;;;2.58;1.80;;;15.10;99.90;;;;;;4996185;28;20940;-74
2021/05/31 06:01:14;;;;;;;2.75;2.20;;;15.10;99.90;;;;;;4997229;28;20227;-74
2021/05/31 06:03:40;;;;;;;2.00;1.80;;;15.10;99.90;;;;;;4996206;28;20196;-76
2021/05/31 06:06:08;;;;;;;1.90;1.80;;;15.00;99.90;;;;;;4994353;28;20200;-74
2021/05/31 06:08:36;;;;;;;2.53;2.00;;;15.00;99.90;;;;;;4994077;28;21256;-75
2021/05/31 06:11:03;;;;;;;1.77;1.67;;;15.10;99.90;;;;;;4998487;28;20252;-74
2021/05/31 06:13:30;;;;;;;3.80;2.15;;;15.20;99.90;;;;;;4996113;28;20224;-75
2021/05/31 06:16:00;;;;;;;2.33;2.20;;;15.30;99.90;;;;;;5002818;28;20192;-77
2021/05/31 06:18:30;;;;;;;5.15;1.95;;;15.40;99.90;;;;;;4994806;28;20224;-76
2021/05/31 06:20:57;;;;;;;3.22;1.77;;;15.30;99.90;;;;;;4998083;28;20227;-74
2021/05/31 06:23:24;;;;;;;2.25;1.95;;;15.30;99.90;;;;;;5006302;28;20228;-74
2021/05/31 06:25:51;;;;;;;2.70;1.92;;;15.20;99.90;;;;;;4995189;28;20254;-76
2021/05/31 06:28:18;;;;;;;3.15;2.17;;;15.20;99.90;;;;;;4994596;28;20228;-75
2021/05/31 06:30:45;;;;;;;1.85;1.75;;;15.20;99.90;;;;;;4997854;28;20207;-75
2021/05/31 06:33:16;;;;;;;4.35;2.15;;;15.10;99.90;;;;;;4996747;28;20224;-75
2021/05/31 06:35:43;;;;;;;2.67;2.13;;;15.00;99.90;;;;;;4990277;28;20244;-75
2021/05/31 06:38:09;;;;;;;3.22;2.15;;;14.90;99.90;;;;;;4995429;28;20224;-76
2021/05/31 06:40:36;;;;;;;2.45;2.00;;;14.90;99.90;;;;;;4995744;28;20672;-75
2021/05/31 06:43:03;;;;;;;2.78;1.70;;;15.10;99.90;;;;;;5002899;28;20231;-78
2021/05/31 06:45:31;;;;;;;3.58;2.40;;;15.20;99.90;;;;;;4999248;28;20748;-74
2021/05/31 06:47:59;;;;;;;2.13;2.03;;;15.20;99.90;;;;;;5003193;28;20231;-76
2021/05/31 06:50:29;;;;;;;3.60;2.30;;;15.20;99.90;;;;;;4996631;28;20204;-76
2021/05/31 06:52:57;;;;;;;2.00;1.80;;;15.70;99.90;;;;;;4998051;28;20231;-73
2021/05/31 06:55:25;;;;;;;3.08;1.90;;;16.10;99.90;;;;;;5000508;28;20204;-76
2021/05/31 06:57:52;;;;;;;2.13;1.92;;;16.10;99.90;;;;;;4999657;28;20721;-76
2021/05/31 07:00:21;;;;;;;2.33;1.95;;;16.20;99.90;;;;;;4994744;28;20287;-78
2021/05/31 07:02:48;;;;;;;2.95;2.13;;;16.20;99.90;;;;;;5000071;28;20906;-77
2021/05/31 07:05:15;;;;;;;1.95;1.80;;;16.10;99.90;;;;;;4999384;28;20204;-74
2021/05/31 07:07:43;;;;;;;2.63;1.80;;;16.10;99.90;;;;;;4997277;28;20223;-75
2021/05/31 07:10:12;;;;;;;2.25;1.70;;;16.10;99.90;;;;;;4999356;28;20568;-76
2021/05/31 07:12:40;;;;;;;4.40;2.05;;;16.10;99.90;;;;;;4994593;28;20235;-74
2021/05/31 07:15:07;;;;;;;2.10;1.90;;;16.10;99.90;;;;;;5000117;28;20365;-75
2021/05/31 07:17:35;;;;;;;2.42;1.95;;;16.20;99.90;;;;;;5002399;28;20783;-76
2021/05/31 07:20:03;;;;;;;2.38;2.00;;;16.30;99.90;;;;;;5001101;28;20204;-73
2021/05/31 07:22:30;;;;;;;2.33;1.85;;;16.50;99.90;;;;;;4994329;28;20228;-75
2021/05/31 07:24:58;;;;;;;1.90;1.80;;;16.70;99.90;;;;;;5001229;28;20196;-78
2021/05/31 07:27:25;;;;;;;3.50;2.25;;;16.90;99.90;;;;;;5001944;28;20227;-74
2021/05/31 07:29:52;;;;;;;3.17;2.17;;;17.20;99.90;;;;;;5001161;28;20197;-78
2021/05/31 07:32:20;;;;;;;1.92;1.73;;;17.60;99.90;;;;;;5002793;28;20289;-74
2021/05/31 07:34:46;;;;;;;1.75;1.50;;;17.50;99.90;;;;;;5001781;28;20200;-75
2021/05/31 07:37:13;;;;;;;3.05;2.08;;;17.40;99.90;;;;;;5007892;28;20224;-74
2021/05/31 07:39:39;;;;;;;4.07;1.95;;;17.30;99.90;;;;;;5005137;28;20204;-77
2021/05/31 07:42:08;;;;;;;1.67;1.58;;;17.30;99.90;;;;;;4993601;28;21118;-78
2021/05/31 07:44:35;;;;;;;1.80;1.70;;;17.20;99.90;;;;;;4997826;28;20203;-80
2021/05/31 07:47:02;;;;;;;4.90;2.15;;;17.10;99.90;;;;;;4999567;28;20789;-76
2021/05/31 07:49:29;;;;;;;2.30;1.65;;;17.10;99.90;;;;;;4999476;28;20208;-76
2021/05/31 07:51:56;;;;;;;3.70;2.13;;;17.20;99.90;;;;;;5002989;28;20223;-76
2021/05/31 07:54:25;;;;;;;1.83;1.63;;;17.20;99.90;;;;;;4999955;28;20254;-75
2021/05/31 07:56:51;;;;;;;2.38;2.17;;;17.20;99.90;;;;;;4996886;28;20219;-74
2021/05/31 07:59:19;;;;;;;2.63;2.15;;;17.30;99.90;;;;;;5005241;28;20199;-75
2021/05/31 08:01:46;;;;;;;4.28;2.42;;;17.30;99.90;;;;;;4997228;28;20232;-76
2021/05/31 08:04:13;;;;;;;1.67;1.58;;;17.50;99.90;;;;;;4999298;28;20211;-78
2021/05/31 08:06:39;;;;;;;2.35;1.65;;;17.50;99.90;;;;;;4998248;28;20199;-74
2021/05/31 08:09:06;;;;;;;1.80;1.70;;;17.50;99.90;;;;;;5004414;28;20200;-76
2021/05/31 08:11:33;;;;;;;1.90;1.80;;;17.40;99.90;;;;;;5002792;28;20220;-76
2021/05/31 08:14:00;;;;;;;2.35;1.75;;;17.70;99.90;;;;;;4996704;28;20203;-75
2021/05/31 08:16:30;;;;;;;2.72;1.90;;;18.20;99.90;;;;;;4996483;28;20243;-77
2021/05/31 08:18:57;;;;;;;3.03;1.95;;;18.70;99.90;;;;;;5002416;28;20212;-74
2021/05/31 08:21:24;;;;;;;2.05;1.88;;;18.90;99.90;;;;;;5001335;28;20249;-73
2021/05/31 08:23:51;;;;;;;1.85;1.67;;;18.90;99.90;;;;;;5002850;28;20224;-76
2021/05/31 08:26:19;;;;;;;3.03;2.03;;;19.00;99.90;;;;;;5007268;28;20203;-73
2021/05/31 08:28:46;;;;;;;2.70;2.03;;;18.90;99.90;;;;;;5008991;28;20624;-77
2021/05/31 08:31:13;;;;;;;1.92;1.73;;;18.60;99.90;;;;;;5002622;28;20744;-74
2021/05/31 08:33:41;;;;;;;2.28;2.08;;;18.90;99.90;;;;;;5004728;28;20231;-75
2021/05/31 08:36:08;;;;;;;2.10;1.90;;;18.90;99.90;;;;;;4999774;28;20251;-74
2021/05/31 08:38:35;;;;;;;1.52;1.42;;;18.50;99.90;;;;;;4999508;28;20224;-75
2021/05/31 08:41:02;;;;;;;2.10;1.90;;;18.40;99.90;;;;;;4999596;28;20235;-76
2021/05/31 08:43:29;;;;;;;1.60;1.50;;;18.10;99.90;;;;;;5002035;28;20224;-75
2021/05/31 08:45:56;;;;;;;2.05;1.95;;;18.10;99.90;;;;;;4999305;28;20200;-74
2021/05/31 08:48:24;;;;;;;2.80;1.65;;;18.00;99.90;;;;;;4994833;28;20224;-74
2021/05/31 08:50:54;;;;;;;1.73;1.63;;;17.90;99.90;;;;;;4999418;28;20224;-74
2021/05/31 08:53:21;;;;;;;1.63;1.52;;;17.90;99.90;;;;;;4999890;28;20240;-77
2021/05/31 08:55:49;;;;;;;2.85;1.63;;;17.90;99.90;;;;;;4996737;28;20879;-76
2021/05/31 08:58:16;;;;;;;3.90;1.75;;;18.30;99.90;;;;;;5000355;28;20239;-74
2021/05/31 09:00:42;;;;;;;1.70;1.60;;;18.90;99.90;;;;;;4998947;28;20254;-77
2021/05/31 09:03:10;;;;;;;1.90;1.70;;;19.10;99.90;;;;;;5013157;28;20307;-74
2021/05/31 09:05:39;;;;;;;1.88;1.60;;;19.20;99.90;;;;;;4999853;28;20197;-75
2021/05/31 09:08:09;;;;;;;2.10;1.70;;;19.20;99.90;;;;;;5001298;28;20247;-75
2021/05/31 09:10:40;;;;;;;1.80;1.52;;;19.10;99.90;;;;;;4998312;28;20205;-74
2021/05/31 09:13:07;;;;;;;3.47;1.77;;;19.20;99.90;;;;;;5009628;28;20227;-73
2021/05/31 09:15:33;;;;;;;1.88;1.70;;;19.10;99.90;;;;;;5007359;28;20205;-72
2021/05/31 09:18:00;;;;;;;1.80;1.63;;;19.70;99.90;;;;;;5005030;28;20220;-73
2021/05/31 09:20:27;;;;;;;2.53;2.08;;;20.20;99.90;;;;;;4999995;28;20200;-73
2021/05/31 09:22:56;;;;;;;4.70;1.70;;;20.40;99.90;;;;;;5005657;28;20253;-74
2021/05/31 09:25:30;;;;;;;2.00;1.80;;;20.40;99.90;;;;;;5011452;28;20203;-73
2021/05/31 09:27:58;;;;;;;2.00;1.70;;;20.40;99.90;;;;;;5006675;28;20230;-74
2021/05/31 09:30:33;;;;;;;1.90;1.80;;;20.70;99.90;;;;;;5006107;28;20667;-73
2021/05/31 09:33:00;;;;;;;1.65;1.55;;;21.20;99.90;;;;;;5005781;28;20283;-73
2021/05/31 09:35:27;;;;;;;2.03;1.60;;;21.50;99.90;;;;;;5011514;28;20255;-73
2021/05/31 09:37:53;;;;;;;1.88;1.70;;;21.50;99.90;;;;;;5004559;28;20216;-74
2021/05/31 09:40:23;;;;;;;4.75;1.73;;;21.40;99.90;;;;;;5010315;28;20204;-73
2021/05/31 09:42:52;;;;;;;1.70;1.60;;;21.30;99.90;;;;;;5014122;28;20216;-74
2021/05/31 09:45:20;;;;;;;1.88;1.55;;;21.30;99.90;;;;;;5008948;28;20204;-73
2021/05/31 09:47:47;;;;;;;1.75;1.50;;;21.40;99.90;;;;;;5012794;28;20212;-71
2021/05/31 09:50:23;;;;;;;2.13;1.67;;;21.20;99.90;;;;;;5016870;28;20207;-73
2021/05/31 09:53:05;;;;;;;1.83;1.60;;;21.00;99.90;;;;;;5012301;28;20233;-72
2021/05/31 09:55:32;;;;;;;1.52;1.42;;;21.00;99.90;;;;;;5015781;28;20441;-71
2021/05/31 09:58:00;;;;;;;2.05;1.60;;;21.00;99.90;;;;;;5013571;28;20619;-72
2021/05/31 10:00:31;;;;;;;2.08;1.75;;;21.30;99.90;;;;;;5000522;28;20208;-72
2021/05/31 10:03:01;;;;;;;1.95;1.73;;;21.40;99.90;;;;;;5006123;28;20281;-72
2021/05/31 10:05:35;;;;;;;1.90;1.60;;;21.30;99.90;;;;;;5002575;28;20219;-72
2021/05/31 10:08:15;;;;;;;1.67;1.35;;;21.50;99.90;;;;;;5002492;28;20220;-73
2021/05/31 10:10:43;;;;;;;3.08;1.67;;;21.60;99.90;;;;;;5001520;28;20291;-70
2021/05/31 10:13:12;;;;;;;1.58;1.38;;;21.80;99.90;;;;;;5008133;28;20216;-74
2021/05/31 10:15:40;;;;;;;1.60;1.50;;;21.80;99.90;;;;;;5005801;28;20202;-75
2021/05/31 10:18:08;;;;;;;1.52;1.42;;;21.70;99.90;;;;;;5006922;28;20337;-74
2021/05/31 10:20:37;;;;;;;2.60;1.40;;;21.60;99.90;;;;;;5005047;28;20205;-73
2021/05/31 10:23:04;;;;;;;1.50;1.40;;;21.70;99.90;;;;;;5001466;28;20239;-74
2021/05/31 10:25:31;;;;;;;1.73;1.58;;;21.70;99.90;;;;;;4999972;28;20286;-73
2021/05/31 10:28:11;;;;;;;1.30;1.20;;;21.70;99.90;;;;;;5002625;28;21211;-75
2021/05/31 10:30:43;;;;;;;1.48;1.27;;;21.80;99.90;;;;;;5004054;28;20671;-74
2021/05/31 10:33:14;;;;;;;1.40;1.30;;;21.90;99.90;;;;;;5004395;28;20370;-74
2021/05/31 10:35:40;;;;;;;1.65;1.30;;;21.90;99.90;;;;;;4999310;28;20204;-75
2021/05/31 10:38:11;;;;;;;2.35;1.55;;;22.00;99.90;;;;;;4997489;28;20784;-74
2021/05/31 10:40:42;;;;;;;1.60;1.50;;;22.10;99.90;;;;;;5012456;28;20258;-74
2021/05/31 10:43:10;;;;;;;2.60;1.27;;;22.10;99.90;;;;;;5019507;28;20263;-75
2021/05/31 10:45:39;;;;;;;2.78;1.58;;;22.00;99.90;;;;;;5004688;28;20227;-75
2021/05/31 10:48:10;;;;;;;1.52;1.42;;;22.10;99.90;;;;;;5015394;28;20220;-76
2021/05/31 10:50:39;;;;;;;1.60;1.50;;;22.10;99.90;;;;;;5018877;28;20192;-76
2021/05/31 10:53:21;;;;;;;4.60;1.40;;;22.10;99.90;;;;;;5008694;28;20227;-76
2021/05/31 10:55:54;;;;;;;1.85;1.60;;;22.10;99.90;;;;;;5008256;28;20206;-76
2021/05/31 10:58:22;;;;;;;3.30;1.40;;;22.10;99.90;;;;;;5003140;28;20231;-75
2021/05/31 11:00:59;;;;;;;2.08;1.30;;;22.00;99.90;;;;;;5006146;28;20215;-71
2021/05/31 11:03:28;;;;;;;1.50;1.40;;;22.10;99.90;;;;;;5001066;28;20227;-73
2021/05/31 11:05:55;;;;;;;2.67;1.20;;;22.20;99.90;;;;;;5004507;28;20196;-73
2021/05/31 11:08:27;;;;;;;1.50;1.40;;;22.20;99.90;;;;;;5000762;28;20227;-73
2021/05/31 11:10:59;;;;;;;1.55;1.33;;;22.20;99.90;;;;;;5000395;28;20220;-74
2021/05/31 11:13:27;;;;;;;1.52;1.42;;;22.30;99.90;;;;;;5003016;28;20227;-75
2021/05/31 11:16:05;;;;;;;1.58;1.48;;;22.40;99.90;;;;;;5001018;28;20203;-73
2021/05/31 11:18:44;;;;;;;1.60;1.50;;;22.30;99.90;;;;;;4998202;28;20219;-74
2021/05/31 11:21:12;;;;;;;1.38;1.27;;;22.30;99.90;;;;;;4999830;28;20227;-74
2021/05/31 11:23:39;;;;;;;2.05;1.60;;;22.40;99.90;;;;;;4999133;28;20216;-74
2021/05/31 11:26:06;;;;;;;2.25;1.50;;;22.50;99.90;;;;;;5007358;28;20204;-73
2021/05/31 11:28:33;;;;;;;1.10;1.10;;;22.60;99.90;;;;;;5006518;28;20221;-74
2021/05/31 11:31:00;;;;;;;1.60;1.50;;;22.50;99.90;;;;;;5008671;28;20725;-73
2021/05/31 11:33:32;;;;;;;1.45;1.35;;;22.50;99.90;;;;;;5013611;28;21009;-74
2021/05/31 11:36:00;;;;;;;2.00;1.27;;;22.60;99.90;;;;;;5005011;28;20663;-73
2021/05/31 11:38:26;;;;;;;1.30;1.20;;;22.70;99.90;;;;;;5009759;28;20240;-74
2021/05/31 11:40:53;;;;;;;1.40;1.30;;;22.90;99.90;;;;;;5004134;28;20224;-72
2021/05/31 11:43:20;;;;;;;1.60;1.50;;;23.00;99.90;;;;;;5009746;28;20229;-76
2021/05/31 11:45:47;;;;;;;1.50;1.23;;;23.00;99.90;;;;;;5007548;28;20206;-76
2021/05/31 11:48:15;;;;;;;1.45;1.35;;;23.10;99.90;;;;;;5009467;28;20243;-76
2021/05/31 11:50:43;;;;;;;3.35;1.50;;;23.10;99.90;;;;;;5009810;28;20209;-76
2021/05/31 11:53:12;;;;;;;1.15;1.05;;;22.90;99.90;;;;;;5009922;28;20224;-77
2021/05/31 11:55:40;;;;;;;1.45;1.35;;;23.00;99.90;;;;;;5005904;28;20898;-76
2021/05/31 11:58:07;;;;;;;1.20;1.08;;;22.90;99.90;;;;;;5012148;28;20273;-75
2021/05/31 12:00:42;;;;;;;2.15;1.30;;;23.00;99.90;;;;;;5006315;28;20212;-75
2021/05/31 12:03:16;;;;;;;1.55;1.30;;;23.40;99.90;;;;;;5008868;28;20627;-76
2021/05/31 12:05:43;;;;;;;1.65;1.13;;;23.50;99.90;;;;;;5001068;28;20200;-77
2021/05/31 12:08:17;;;;;;;1.30;1.20;;;23.50;99.90;;;;;;5000857;28;20221;-76
2021/05/31 12:10:45;;;;;;;2.55;1.48;;;23.50;99.90;;;;;;5018195;28;20204;-77
2021/05/31 12:13:12;;;;;;;1.50;1.30;;;23.40;99.90;;;;;;5009714;28;20224;-75
2021/05/31 12:15:39;;;;;;;3.80;1.33;;;23.40;99.90;;;;;;5002327;28;20208;-76
2021/05/31 12:18:11;;;;;;;1.65;1.40;;;23.40;99.90;;;;;;4998284;28;20287;-75
2021/05/31 12:20:38;;;;;;;1.63;1.30;;;23.40;99.90;;;;;;4994361;28;20231;-75
2021/05/31 12:23:16;;;;;;;1.13;1.10;;;23.40;99.90;;;;;;4996580;28;20737;-75
2021/05/31 12:25:42;;;;;;;1.30;1.20;;;23.40;99.90;;;;;;4996176;28;20671;-76
2021/05/31 12:28:09;;;;;;;1.20;1.20;;;23.50;99.90;;;;;;4998045;28;20222;-77
2021/05/31 12:30:36;;;;;;;1.35;1.25;;;23.50;99.90;;;;;;5006437;28;20196;-77
2021/05/31 12:33:10;;;;;;;2.13;1.17;;;23.60;99.90;;;;;;5003637;28;20227;-76
2021/05/31 12:35:37;;;;;;;4.78;1.45;;;23.70;99.90;;;;;;5005083;28;20199;-76
2021/05/31 12:38:03;;;;;;;1.13;1.02;;;23.60;99.70;;;;;;5013656;28;20219;-76
2021/05/31 12:40:34;;;;;;;3.72;1.50;;;23.60;99.80;;;;;;5001319;28;20197;-75
2021/05/31 12:43:02;;;;;;;1.33;1.23;;;23.60;99.20;;;;;;5000614;28;20243;-75
2021/05/31 12:45:29;;;;;;;1.77;1.08;;;23.50;99.70;;;;;;4995866;28;20208;-76
2021/05/31 12:47:56;;;;;;;1.08;1.08;;;23.50;99.30;;;;;;5004277;28;20231;-76
2021/05/31 12:50:27;;;;;;;1.48;1.38;;;23.70;99.60;;;;;;5001042;28;20284;-75
2021/05/31 12:52:54;;;;;;;1.30;1.20;;;23.70;99.20;;;;;;5001956;28;20261;-75
2021/05/31 12:55:25;;;;;;;1.00;1.00;;;23.70;99.30;;;;;;5014326;28;20230;-75
2021/05/31 12:57:54;;;;;;;1.15;1.00;;;23.70;99.90;;;;;;5013597;28;20294;-75
2021/05/31 13:00:23;;;;;;;1.63;1.20;;;23.80;99.80;;;;;;5004950;28;20214;-77
2021/05/31 13:02:52;;;;;;;1.58;1.45;;;23.90;99.90;;;;;;5010619;28;20227;-76